Time;durP1;ratioP1;P1;durP2;ratioP2;P2;SDS_P1;SDS_P2;PMS_P1;PMS_P2;Temp;Humidity;BMP_temperature;BMP_pressure;BME280_temperature;BME280_humidity;BME280_pressure;Samples;Min_cycle;Max_cycle;Signal;HPM_P1;HPM_P2
2021/08/31 00:00:26;;;;;;;;;;;;;;;19.72;68.74;102128.38;5077931;28;1029;-62
2021/08/31 00:02:51;;;;;;;;;;;;;;;19.73;68.70;102137.34;5078198;28;1258;-64
2021/08/31 00:05:16;;;;;;;;;;;;;;;19.72;68.41;102139.19;5078295;28;1894;-62
2021/08/31 00:07:41;;;;;;;;;;;;;;;19.73;68.15;102135.50;5077978;28;919;-61
2021/08/31 00:10:06;;;;;;;;;;;;;;;19.72;68.38;102139.19;5066019;28;1780;-61
2021/08/31 00:12:31;;;;;;;;;;;;;;;19.71;68.96;102134.75;5058123;28;1828;-61
2021/08/31 00:14:56;;;;;;;;;;;;;;;19.71;68.83;102137.47;5058019;28;1064;-61
2021/08/31 00:17:21;;;;;;;;;;;;;;;19.71;68.33;102140.16;5056102;28;1223;-61
2021/08/31 00:19:46;;;;;;;;;;;;;;;19.69;68.37;102133.19;5057751;28;846;-62
2021/08/31 00:22:11;;;;;;;;;;;;;;;19.71;68.74;102140.16;5057934;28;1555;-63
2021/08/31 00:24:37;;;;;;;;;;;;;;;19.70;68.00;102138.47;5057651;28;1918;-63
2021/08/31 00:27:02;;;;;;;;;;;;;;;19.70;68.35;102137.63;5060535;28;1903;-63
2021/08/31 00:29:27;;;;;;;;;;;;;;;19.69;68.83;102130.50;5077622;28;996;-62
2021/08/31 00:31:52;;;;;;;;;;;;;;;19.68;68.49;102135.03;5077650;28;835;-62
2021/08/31 00:34:17;;;;;;;;;;;;;;;19.67;68.18;102136.03;5077164;28;932;-62
2021/08/31 00:36:42;;;;;;;;;;;;;;;19.68;69.24;102143.16;5063023;28;1866;-62
2021/08/31 00:39:07;;;;;;;;;;;;;;;19.67;67.90;102146.84;5057026;28;827;-60
2021/08/31 00:41:35;;;;;;;;;;;;;;;19.67;68.42;102149.56;5057598;28;998;-61
2021/08/31 00:44:01;;;;;;;;;;;;;;;19.66;68.71;102155.94;5057352;28;1898;-61
2021/08/31 00:46:26;;;;;;;;;;;;;;;19.67;68.66;102156.81;5074117;28;1787;-61
2021/08/31 00:48:51;;;;;;;;;;;;;;;19.66;68.51;102164.06;5077250;28;1710;-61
2021/08/31 00:51:16;;;;;;;;;;;;;;;19.66;68.43;102158.66;5077377;28;925;-61
2021/08/31 00:53:41;;;;;;;;;;;;;;;19.65;68.93;102162.34;5077406;28;842;-61
2021/08/31 00:56:06;;;;;;;;;;;;;;;19.64;68.82;102147.09;5077225;28;989;-61
2021/08/31 00:58:31;;;;;;;;;;;;;;;19.64;68.47;102155.19;5076818;28;1057;-61
2021/08/31 01:00:56;;;;;;;;;;;;;;;19.65;68.05;102156.06;5076397;28;925;-61
2021/08/31 01:03:22;;;;;;;;;;;;;;;19.64;68.51;102160.63;5076395;28;1843;-61
2021/08/31 01:05:47;;;;;;;;;;;;;;;19.64;68.81;102151.63;5077294;28;1894;-61
2021/08/31 01:08:12;;;;;;;;;;;;;;;19.63;68.03;102150.78;5076991;28;800;-61
2021/08/31 01:10:37;;;;;;;;;;;;;;;19.63;68.36;102152.63;5076934;28;990;-62
2021/08/31 01:13:02;;;;;;;;;;;;;;;19.62;68.76;102149.06;5076052;28;1595;-62
2021/08/31 01:15:28;;;;;;;;;;;;;;;19.62;69.05;102159.88;5076185;28;911;-63
2021/08/31 01:17:54;;;;;;;;;;;;;;;19.61;68.43;102155.44;5076728;28;931;-63
2021/08/31 01:20:19;;;;;;;;;;;;;;;19.61;68.68;102155.44;5076743;28;842;-61
2021/08/31 01:22:44;;;;;;;;;;;;;;;19.61;68.29;102157.28;5060072;28;1751;-61
2021/08/31 01:25:09;;;;;;;;;;;;;;;19.60;68.40;102159.13;5056129;28;1961;-61
2021/08/31 01:27:34;;;;;;;;;;;;;;;19.61;68.22;102160.00;5056763;28;894;-61
2021/08/31 01:29:59;;;;;;;;;;;;;;;19.60;69.03;102160.97;5056455;28;780;-60
2021/08/31 01:32:25;;;;;;;;;;;;;;;19.60;68.88;102159.13;5056282;28;992;-61
2021/08/31 01:34:50;;;;;;;;;;;;;;;19.61;68.49;102162.72;5056167;28;838;-59
2021/08/31 01:37:15;;;;;;;;;;;;;;;19.59;68.45;102162.81;5056691;28;1735;-60
2021/08/31 01:39:40;;;;;;;;;;;;;;;19.59;68.42;102165.53;5076115;28;862;-60
2021/08/31 01:42:05;;;;;;;;;;;;;;;19.58;68.71;102166.50;5076061;28;1040;-60
2021/08/31 01:44:30;;;;;;;;;;;;;;;19.58;67.91;102171.06;5076048;28;1894;-60
2021/08/31 01:46:55;;;;;;;;;;;;;;;19.57;68.78;102172.03;5075809;28;851;-61
2021/08/31 01:49:20;;;;;;;;;;;;;;;19.57;68.24;102172.91;5075967;28;802;-60
2021/08/31 01:51:45;;;;;;;;;;;;;;;19.57;68.53;102185.56;5075919;28;857;-61
2021/08/31 01:54:10;;;;;;;;;;;;;;;19.56;68.33;102176.59;5057393;28;1796;-60
2021/08/31 01:56:36;;;;;;;;;;;;;;;19.56;68.76;102176.59;5056020;28;1077;-60
2021/08/31 01:59:01;;;;;;;;;;;;;;;19.56;68.24;102176.59;5055970;28;867;-60
2021/08/31 02:01:26;;;;;;;;;;;;;;;19.55;68.06;102174.88;5055610;28;860;-60
2021/08/31 02:03:51;;;;;;;;;;;;;;;19.55;68.27;102182.13;5055657;28;1902;-60
2021/08/31 02:06:16;;;;;;;;;;;;;;;19.54;68.68;102175.84;5055745;28;886;-60
2021/08/31 02:08:41;;;;;;;;;;;;;;;19.54;67.81;102175.00;5055443;28;1188;-60
2021/08/31 02:11:06;;;;;;;;;;;;;;;19.53;68.18;102176.84;5066569;28;1776;-60
2021/08/31 02:13:31;;;;;;;;;;;;;;;19.53;67.87;102173.28;5075098;28;969;-60
2021/08/31 02:15:56;;;;;;;;;;;;;;;19.52;68.51;102172.44;5075476;28;888;-59
2021/08/31 02:18:21;;;;;;;;;;;;;;;19.51;68.65;102168.03;5073477;28;1815;-59
2021/08/31 02:20:47;;;;;;;;;;;;;;;19.51;68.45;102168.03;5060823;28;1779;-60
2021/08/31 02:23:12;;;;;;;;;;;;;;;19.51;68.09;102169.88;5075036;28;940;-60
2021/08/31 02:25:37;;;;;;;;;;;;;;;19.51;68.25;102167.16;5075576;28;1917;-60
2021/08/31 02:28:02;;;;;;;;;;;;;;;19.49;68.66;102172.66;5074141;28;1851;-59
2021/08/31 02:30:27;;;;;;;;;;;;;;;19.49;67.73;102169.09;5055324;28;803;-60
2021/08/31 02:32:52;;;;;;;;;;;;;;;19.49;68.24;102171.78;5055289;28;819;-61
2021/08/31 02:35:17;;;;;;;;;;;;;;;19.48;68.12;102167.38;5055328;28;893;-61
2021/08/31 02:37:42;;;;;;;;;;;;;;;19.48;67.38;102165.53;5055672;28;1630;-62
2021/08/31 02:40:07;;;;;;;;;;;;;;;19.47;68.07;102165.66;5054900;28;927;-62
2021/08/31 02:42:32;;;;;;;;;;;;;;;19.46;67.46;102166.63;5054843;28;997;-62
2021/08/31 02:44:57;;;;;;;;;;;;;;;19.45;68.25;102173.03;5055215;28;1906;-62
2021/08/31 02:47:23;;;;;;;;;;;;;;;19.45;67.55;102173.88;5066417;28;1888;-61
2021/08/31 02:49:48;;;;;;;;;;;;;;;19.45;67.72;102171.19;5075114;28;997;-62
2021/08/31 02:52:13;;;;;;;;;;;;;;;19.43;68.16;102170.44;5074731;28;919;-61
2021/08/31 02:54:38;;;;;;;;;;;;;;;19.42;67.62;102169.59;5074623;28;870;-61
2021/08/31 02:57:03;;;;;;;;;;;;;;;19.43;68.17;102167.75;5074756;28;1581;-61
2021/08/31 02:59:29;;;;;;;;;;;;;;;19.42;67.21;102175.00;5074490;28;989;-61
2021/08/31 03:02:07;;;;;;;;;;;;;;;19.42;67.30;102174.13;5075436;28;785;-61
2021/08/31 03:04:32;;;;;;;;;;;;;;;19.41;67.17;102172.41;5067489;28;1902;-61
2021/08/31 03:06:58;;;;;;;;;;;;;;;19.40;67.71;102178.78;5054936;28;811;-59
2021/08/31 03:09:23;;;;;;;;;;;;;;;19.40;67.11;102170.69;5054568;28;930;-59
2021/08/31 03:11:48;;;;;;;;;;;;;;;19.41;66.88;102183.22;5054974;28;1351;-59
2021/08/31 03:14:18;;;;;;;;;;;;;;;19.39;66.62;102185.19;5053800;28;938;-60
2021/08/31 03:16:43;;;;;;;;;;;;;;;19.38;67.83;102172.66;5054944;28;861;-60
2021/08/31 03:19:09;;;;;;;;;;;;;;;19.37;67.88;102177.19;5054660;28;999;-59
2021/08/31 03:21:34;;;;;;;;;;;;;;;19.38;67.39;102178.06;5054836;28;997;-59
2021/08/31 03:23:59;;;;;;;;;;;;;;;19.36;67.32;102178.19;5074624;28;1963;-59
2021/08/31 03:26:24;;;;;;;;;;;;;;;19.35;66.95;102172.91;5079162;28;1447;-60
2021/08/31 03:28:49;;;;;;;;;;;;;;;19.35;67.29;102172.91;5079009;28;889;-60
2021/08/31 03:31:14;;;;;;;;;;;;;;;19.35;67.42;102167.50;5078592;28;1055;-60
2021/08/31 03:33:39;;;;;;;;;;;;;;;19.33;67.41;102175.75;5078589;28;981;-60
2021/08/31 03:36:07;;;;;;;;;;;;;;;19.33;67.64;102178.44;5078636;28;988;-60
2021/08/31 03:38:32;;;;;;;;;;;;;;;19.34;67.38;102184.72;5078543;28;939;-60
2021/08/31 03:40:57;;;;;;;;;;;;;;;19.34;68.07;102184.72;5069174;28;1826;-61
2021/08/31 03:43:22;;;;;;;;;;;;;;;19.34;67.65;102188.28;5058206;28;949;-61
2021/08/31 03:45:47;;;;;;;;;;;;;;;19.33;67.28;102186.56;5058490;28;1894;-61
2021/08/31 03:48:12;;;;;;;;;;;;;;;19.32;67.82;102189.38;5058330;28;997;-61
2021/08/31 03:50:37;;;;;;;;;;;;;;;19.32;67.56;102182.13;5058366;28;926;-60
2021/08/31 03:53:02;;;;;;;;;;;;;;;19.32;67.49;102183.97;5057975;28;906;-60
2021/08/31 03:55:27;;;;;;;;;;;;;;;19.32;68.04;102183.97;5058551;28;1236;-60
2021/08/31 03:57:53;;;;;;;;;;;;;;;19.31;67.57;102177.72;5058232;28;1727;-60
2021/08/31 04:00:18;;;;;;;;;;;;;;;19.32;68.16;102178.56;5058068;28;1002;-60
2021/08/31 04:02:43;;;;;;;;;;;;;;;19.32;67.54;102183.97;5058396;28;799;-60
2021/08/31 04:05:08;;;;;;;;;;;;;;;19.30;68.00;102176.00;5058072;28;1902;-59
2021/08/31 04:07:33;;;;;;;;;;;;;;;19.30;68.14;102175.13;5058188;28;1881;-60
2021/08/31 04:09:58;;;;;;;;;;;;;;;19.29;67.49;102174.28;5057611;28;993;-60
2021/08/31 04:12:24;;;;;;;;;;;;;;;19.29;68.04;102176.13;5057847;28;1305;-61
2021/08/31 04:14:49;;;;;;;;;;;;;;;19.29;68.11;102181.53;5064799;28;1808;-60
2021/08/31 04:17:14;;;;;;;;;;;;;;;19.29;68.11;102176.13;5078087;28;858;-60
2021/08/31 04:19:39;;;;;;;;;;;;;;;19.28;68.22;102179.78;5077719;28;925;-61
2021/08/31 04:22:04;;;;;;;;;;;;;;;19.27;67.69;102178.06;5077953;28;784;-61
2021/08/31 04:24:29;;;;;;;;;;;;;;;19.27;67.70;102175.38;5077103;28;1981;-60
2021/08/31 04:26:54;;;;;;;;;;;;;;;19.27;67.95;102175.38;5077864;28;1533;-61
2021/08/31 04:29:19;;;;;;;;;;;;;;;19.26;67.52;102176.34;5077335;28;840;-60
2021/08/31 04:31:45;;;;;;;;;;;;;;;19.26;67.80;102176.34;5077433;28;1036;-62
2021/08/31 04:34:10;;;;;;;;;;;;;;;19.26;67.64;102184.47;5059766;28;1974;-62
2021/08/31 04:36:35;;;;;;;;;;;;;;;19.25;68.05;102188.16;5056923;28;1824;-62
2021/08/31 04:39:00;;;;;;;;;;;;;;;19.26;68.05;102189.88;5057480;28;1037;-62
2021/08/31 04:41:25;;;;;;;;;;;;;;;19.24;67.63;102187.28;5057085;28;882;-61
2021/08/31 04:43:50;;;;;;;;;;;;;;;19.24;68.23;102199.94;5057078;28;998;-61
2021/08/31 04:46:15;;;;;;;;;;;;;;;19.23;68.07;102203.63;5057069;28;1894;-62
2021/08/31 04:48:40;;;;;;;;;;;;;;;19.24;67.81;102199.94;5056752;28;871;-61
2021/08/31 04:51:05;;;;;;;;;;;;;;;19.23;67.90;102195.50;5063189;28;1588;-62
2021/08/31 04:53:30;;;;;;;;;;;;;;;19.23;68.21;102201.78;5076845;28;1052;-61
2021/08/31 04:55:55;;;;;;;;;;;;;;;19.21;68.03;102208.28;5067387;28;1785;-59
2021/08/31 04:58:20;;;;;;;;;;;;;;;19.21;68.28;102211.84;5057096;28;1005;-60
2021/08/31 05:00:45;;;;;;;;;;;;;;;19.21;68.71;102202.88;5058113;28;1780;-61
2021/08/31 05:03:11;;;;;;;;;;;;;;;19.23;69.19;102219.84;5057100;28;843;-59
2021/08/31 05:05:36;;;;;;;;;;;;;;;19.22;69.41;102215.41;5055590;28;1887;-59
2021/08/31 05:08:01;;;;;;;;;;;;;;;19.26;70.82;102214.19;5053671;28;1459;-59
2021/08/31 05:10:26;;;;;;;;;;;;;;;19.32;72.81;102221.81;5047896;28;1848;-60
2021/08/31 05:12:51;;;;;;;;;;;;;;;19.36;70.66;102212.47;5045471;28;1457;-59
2021/08/31 05:15:16;;;;;;;;;;;;;;;19.35;71.72;102224.25;5045484;28;1262;-63
2021/08/31 05:17:41;;;;;;;;;;;;;;;19.32;71.40;102228.09;5047455;28;1536;-59
2021/08/31 05:20:06;;;;;;;;;;;;;;;19.32;71.21;102224.53;5045263;28;1405;-59
2021/08/31 05:22:31;;;;;;;;;;;;;;;19.32;70.38;102229.94;5046876;28;1524;-59
2021/08/31 05:24:56;;;;;;;;;;;;;;;19.31;70.00;102225.50;5047255;28;1961;-59
2021/08/31 05:27:21;;;;;;;;;;;;;;;19.32;70.39;102228.09;5043489;28;1536;-58
2021/08/31 05:29:47;;;;;;;;;;;;;;;19.34;69.55;102238.78;5050573;28;1550;-59
2021/08/31 05:32:12;;;;;;;;;;;;;;;19.33;69.20;102234.34;5055548;28;1512;-59
2021/08/31 05:34:37;;;;;;;;;;;;;;;19.31;69.65;102237.19;5051884;28;1684;-60
2021/08/31 05:37:02;;;;;;;;;;;;;;;19.31;69.99;102233.63;5056615;28;850;-59
2021/08/31 05:39:33;;;;;;;;;;;;;;;19.30;68.61;102234.59;5049275;28;1840;-59
2021/08/31 05:41:58;;;;;;;;;;;;;;;19.29;69.67;102238.28;5054715;28;1523;-59
2021/08/31 05:44:23;;;;;;;;;;;;;;;19.28;69.35;102240.13;5059530;28;2210;-59
2021/08/31 05:46:48;;;;;;;;;;;;;;;19.27;68.81;102241.09;5048921;28;1813;-59
2021/08/31 05:49:13;;;;;;;;;;;;;;;19.28;69.15;102247.38;5047219;28;1697;-59
2021/08/31 05:51:38;;;;;;;;;;;;;;;19.28;69.09;102247.38;5043857;28;1653;-59
2021/08/31 05:54:03;;;;;;;;;;;;;;;19.27;68.76;102261.88;5049258;28;1738;-59
2021/08/31 05:56:28;;;;;;;;;;;;;;;19.28;69.64;102258.19;5043873;28;1727;-59
2021/08/31 05:58:53;;;;;;;;;;;;;;;19.27;69.24;102256.47;5046236;28;1599;-59
2021/08/31 06:01:18;;;;;;;;;;;;;;;19.26;68.63;102266.41;5045269;28;1630;-60
2021/08/31 06:03:43;;;;;;;;;;;;;;;19.27;69.74;102268.13;5041517;28;1525;-59
2021/08/31 06:06:09;;;;;;;;;;;;;;;19.27;70.48;102276.25;5035818;28;1890;-59
2021/08/31 06:08:34;;;;;;;;;;;;;;;19.29;69.15;102270.72;5035909;28;823;-59
2021/08/31 06:10:59;;;;;;;;;;;;;;;19.26;69.94;102274.53;5043535;28;1874;-59
2021/08/31 06:13:24;;;;;;;;;;;;;;;19.27;70.40;102264.56;5075796;28;878;-59
2021/08/31 06:15:49;;;;;;;;;;;;;;;19.29;70.00;102273.44;5068193;28;1544;-61
2021/08/31 06:18:14;;;;;;;;;;;;;;;19.31;70.11;102263.34;5046840;28;1698;-62
2021/08/31 06:20:39;;;;;;;;;;;;;;;19.35;69.85;102270.22;5046685;28;1616;-61
2021/08/31 06:23:05;;;;;;;;;;;;;;;19.37;69.35;102284.47;5046276;28;1511;-62
2021/08/31 06:25:30;;;;;;;;;;;;;;;19.40;69.19;102279.69;5044313;28;1977;-62
2021/08/31 06:27:55;;;;;;;;;;;;;;;19.41;68.99;102275.13;5052473;28;2800;-62
2021/08/31 06:30:20;;;;;;;;;;;;;;;19.42;69.52;102280.44;5053738;28;1167;-62
2021/08/31 06:32:45;;;;;;;;;;;;;;;19.39;69.78;102277.97;5055451;28;1273;-62
2021/08/31 06:35:10;;;;;;;;;;;;;;;19.38;69.74;102281.66;5054545;28;1304;-63
2021/08/31 06:37:35;;;;;;;;;;;;;;;19.38;68.98;102283.50;5060024;28;1272;-62
2021/08/31 06:40:00;;;;;;;;;;;;;;;19.37;69.30;102285.34;5073383;28;1316;-62
2021/08/31 06:42:25;;;;;;;;;;;;;;;19.36;69.05;102285.44;5062596;28;1522;-63
2021/08/31 06:44:50;;;;;;;;;;;;;;;19.39;69.11;102282.50;5056377;28;1901;-62
2021/08/31 06:47:15;;;;;;;;;;;;;;;19.40;69.76;102287.81;5055270;28;1728;-62
2021/08/31 06:49:40;;;;;;;;;;;;;;;19.37;69.07;102288.03;5054487;28;1780;-62
2021/08/31 06:52:06;;;;;;;;;;;;;;;19.38;69.11;102278.94;5054206;28;1483;-62
2021/08/31 06:54:31;;;;;;;;;;;;;;;19.39;69.82;102287.91;5060467;28;1356;-62
2021/08/31 06:56:56;;;;;;;;;;;;;;;19.42;69.82;102287.69;5063628;28;1580;-61
2021/08/31 06:59:22;;;;;;;;;;;;;;;19.43;69.27;102289.41;5063420;28;1490;-60
2021/08/31 07:01:47;;;;;;;;;;;;;;;19.45;69.49;102279.34;5061140;28;1562;-60
2021/08/31 07:04:12;;;;;;;;;;;;;;;19.46;69.83;102278.34;5059339;28;1898;-59
2021/08/31 07:06:37;;;;;;;;;;;;;;;19.48;69.01;102283.63;5060974;28;1483;-60
2021/08/31 07:09:02;;;;;;;;;;;;;;;19.45;69.98;102282.03;5063763;28;1466;-62
2021/08/31 07:11:27;;;;;;;;;;;;;;;19.46;68.91;102280.19;5061829;28;1526;-61
2021/08/31 07:13:52;;;;;;;;;;;;;;;19.43;69.48;102278.59;5058394;28;1246;-61
2021/08/31 07:16:18;;;;;;;;;;;;;;;19.44;69.12;102291.13;5060480;28;1371;-60
2021/08/31 07:18:44;;;;;;;;;;;;;;;19.41;69.56;102296.78;5061389;28;1474;-61
2021/08/31 07:21:09;;;;;;;;;;;;;;;19.42;69.97;102295.78;5063956;28;1411;-60
2021/08/31 07:23:34;;;;;;;;;;;;;;;19.41;69.15;102296.78;5068419;28;1410;-59
2021/08/31 07:25:59;;;;;;;;;;;;;;;19.38;70.01;102299.72;5068413;28;1969;-61
2021/08/31 07:28:24;;;;;;;;;;;;;;;19.38;70.02;102307.81;5068219;28;1578;-60
2021/08/31 07:30:49;;;;;;;;;;;;;;;19.36;69.29;102299.84;5061806;28;1502;-61
2021/08/31 07:33:14;;;;;;;;;;;;;;;19.43;69.83;102300.22;5059065;28;1588;-60
2021/08/31 07:35:39;;;;;;;;;;;;;;;19.49;68.91;102298.88;5067293;28;1649;-60
2021/08/31 07:38:04;;;;;;;;;;;;;;;19.52;68.96;102304.94;5068236;28;1407;-60
2021/08/31 07:40:29;;;;;;;;;;;;;;;19.54;69.37;102302.09;5060626;28;1477;-60
2021/08/31 07:42:54;;;;;;;;;;;;;;;19.57;69.26;102304.56;5059524;28;1499;-61
2021/08/31 07:45:19;;;;;;;;;;;;;;;19.58;69.40;102304.44;5060783;28;1953;-60
2021/08/31 07:47:45;;;;;;;;;;;;;;;19.60;68.72;102307.03;5065995;28;1649;-61
2021/08/31 07:50:10;;;;;;;;;;;;;;;19.63;69.21;102318.47;5068138;28;1415;-61
2021/08/31 07:52:35;;;;;;;;;;;;;;;19.64;68.68;102320.19;5067984;28;1478;-60
2021/08/31 07:55:00;;;;;;;;;;;;;;;19.67;68.80;102313.69;5064848;28;1541;-60
2021/08/31 07:57:27;;;;;;;;;;;;;;;19.66;69.19;102310.09;5070627;28;1425;-62
2021/08/31 07:59:52;;;;;;;;;;;;;;;19.69;69.25;102317.97;5058597;28;1510;-61
2021/08/31 08:02:17;;;;;;;;;;;;;;;19.69;69.04;102317.97;5073547;28;1731;-61
2021/08/31 08:04:42;;;;;;;;;;;;;;;19.71;68.87;102321.41;5063022;28;1962;-61
2021/08/31 08:07:07;;;;;;;;;;;;;;;19.72;68.97;102315.00;5068987;28;1533;-61
2021/08/31 08:09:33;;;;;;;;;;;;;;;19.74;69.80;102321.16;5057000;28;1606;-61
2021/08/31 08:11:58;;;;;;;;;;;;;;;19.75;69.69;102325.59;5059448;28;1911;-61
2021/08/31 08:14:24;;;;;;;;;;;;;;;19.75;69.10;102322.88;5059664;28;1674;-60
2021/08/31 08:16:49;;;;;;;;;;;;;;;19.76;69.19;102330.00;5069816;28;1412;-61
2021/08/31 08:19:14;;;;;;;;;;;;;;;19.77;69.09;102339.84;5061625;28;1905;-61
2021/08/31 08:21:39;;;;;;;;;;;;;;;19.80;70.00;102335.19;5057804;28;1888;-60
2021/08/31 08:24:04;;;;;;;;;;;;;;;19.80;69.08;102333.34;5059375;28;1914;-60
2021/08/31 08:26:29;;;;;;;;;;;;;;;19.83;69.17;102333.09;5059398;28;1880;-60
2021/08/31 08:28:54;;;;;;;;;;;;;;;19.83;69.15;102333.09;5058950;28;1631;-62
2021/08/31 08:31:19;;;;;;;;;;;;;;;19.83;69.38;102334.94;5058215;28;1468;-61
2021/08/31 08:33:44;;;;;;;;;;;;;;;19.81;69.51;102345.03;5062342;28;1422;-60
2021/08/31 08:36:09;;;;;;;;;;;;;;;19.81;68.93;102345.88;5063239;28;1287;-60
2021/08/31 08:38:35;;;;;;;;;;;;;;;19.81;68.80;102350.44;5049521;28;1560;-60
2021/08/31 08:41:04;;;;;;;;;;;;;;;19.80;68.84;102354.13;5064276;28;1484;-60
2021/08/31 08:43:29;;;;;;;;;;;;;;;19.80;68.90;102359.53;5060432;28;1457;-61
2021/08/31 08:45:54;;;;;;;;;;;;;;;19.81;69.50;102353.13;5064539;28;1906;-62
2021/08/31 08:48:19;;;;;;;;;;;;;;;19.81;69.19;102359.41;5058532;28;1655;-62
2021/08/31 08:50:45;;;;;;;;;;;;;;;19.82;68.94;102358.44;5058775;28;1820;-62
2021/08/31 08:53:10;;;;;;;;;;;;;;;19.85;69.25;102366.31;5072447;28;1416;-63
2021/08/31 08:55:35;;;;;;;;;;;;;;;19.86;69.39;102364.47;5070456;28;1563;-63
2021/08/31 08:58:00;;;;;;;;;;;;;;;19.87;68.92;102369.75;5062121;28;1556;-62
2021/08/31 09:00:26;;;;;;;;;;;;;;;19.87;69.44;102375.16;5056422;28;1374;-61
2021/08/31 09:02:51;;;;;;;;;;;;;;;19.89;69.07;102366.91;5068729;28;1506;-60
2021/08/31 09:05:16;;;;;;;;;;;;;;;19.90;69.43;102357.78;5059251;28;1893;-60
2021/08/31 09:07:41;;;;;;;;;;;;;;;19.91;69.74;102365.78;5056386;28;874;-60
2021/08/31 09:10:06;;;;;;;;;;;;;;;19.91;69.53;102370.34;5056773;28;989;-60
2021/08/31 09:12:31;;;;;;;;;;;;;;;19.93;69.05;102366.53;5056638;28;1667;-61
2021/08/31 09:14:56;;;;;;;;;;;;;;;19.94;69.30;102370.09;5056711;28;1890;-62
2021/08/31 09:17:21;;;;;;;;;;;;;;;19.95;69.54;102366.41;5055167;28;907;-60
2021/08/31 09:19:46;;;;;;;;;;;;;;;19.96;68.93;102370.84;5056759;28;834;-59
2021/08/31 09:22:12;;;;;;;;;;;;;;;19.97;69.50;102370.72;5071698;28;1740;-59
2021/08/31 09:24:37;;;;;;;;;;;;;;;19.99;69.34;102373.31;5073852;28;1906;-59
2021/08/31 09:27:02;;;;;;;;;;;;;;;20.00;69.23;102369.63;5065823;28;1576;-59
2021/08/31 09:29:27;;;;;;;;;;;;;;;20.03;69.13;102372.09;5072060;28;1475;-59
2021/08/31 09:31:53;;;;;;;;;;;;;;;20.03;69.66;102375.66;5073109;28;1885;-59
2021/08/31 09:34:18;;;;;;;;;;;;;;;20.04;68.92;102376.50;5059101;28;1725;-59
2021/08/31 09:36:44;;;;;;;;;;;;;;;20.05;69.00;102367.41;5054966;28;1558;-59
2021/08/31 09:39:12;;;;;;;;;;;;;;;20.05;69.31;102375.53;5058978;28;1687;-59
2021/08/31 09:41:37;;;;;;;;;;;;;;;20.03;68.62;102377.50;5055891;28;1987;-59
2021/08/31 09:44:03;;;;;;;;;;;;;;;20.03;68.51;102385.63;5055654;28;918;-59
2021/08/31 09:46:28;;;;;;;;;;;;;;;20.01;68.84;102383.03;5054378;28;2394;-60
2021/08/31 09:48:53;;;;;;;;;;;;;;;20.01;68.73;102387.59;5056200;28;1017;-59
2021/08/31 09:51:18;;;;;;;;;;;;;;;20.00;69.15;102385.84;5072984;28;1947;-59
2021/08/31 09:53:43;;;;;;;;;;;;;;;19.98;68.92;102385.97;5075461;28;843;-59
2021/08/31 09:56:08;;;;;;;;;;;;;;;19.98;68.46;102393.22;5060761;28;1722;-59
2021/08/31 09:58:33;;;;;;;;;;;;;;;19.97;68.51;102386.09;5055696;28;859;-59
2021/08/31 10:00:58;;;;;;;;;;;;;;;19.95;69.23;102378.09;5055541;28;1673;-60
2021/08/31 10:03:23;;;;;;;;;;;;;;;19.96;68.99;102378.97;5056585;28;1803;-61
2021/08/31 10:05:48;;;;;;;;;;;;;;;19.97;68.95;102381.53;5053774;28;2117;-60
2021/08/31 10:08:13;;;;;;;;;;;;;;;19.96;68.43;102366.28;5065635;28;1934;-61
2021/08/31 10:10:39;;;;;;;;;;;;;;;19.97;68.13;102365.31;5075232;28;1748;-61
2021/08/31 10:13:05;;;;;;;;;;;;;;;19.98;68.15;102372.44;5075135;28;1377;-60
2021/08/31 10:15:30;;;;;;;;;;;;;;;20.00;68.22;102381.31;5074811;28;1672;-59
2021/08/31 10:17:55;;;;;;;;;;;;;;;20.04;68.18;102374.66;5054910;28;1261;-60
2021/08/31 10:20:20;;;;;;;;;;;;;;;20.06;68.58;102379.97;5055573;28;855;-61
2021/08/31 10:22:45;;;;;;;;;;;;;;;20.10;68.47;102384.13;5055064;28;934;-62
2021/08/31 10:25:10;;;;;;;;;;;;;;;20.14;67.80;102374.78;5057903;28;1965;-61
2021/08/31 10:27:36;;;;;;;;;;;;;;;20.16;68.61;102380.06;5075086;28;1060;-61
2021/08/31 10:30:01;;;;;;;;;;;;;;;20.18;69.02;102392.50;5058146;28;1242;-62
2021/08/31 10:32:26;;;;;;;;;;;;;;;20.18;68.89;102387.06;5055186;28;1060;-61
2021/08/31 10:34:51;;;;;;;;;;;;;;;20.19;68.26;102388.81;5054460;28;1624;-61
2021/08/31 10:37:16;;;;;;;;;;;;;;;20.20;68.53;102382.41;5054465;28;799;-61
2021/08/31 10:39:41;;;;;;;;;;;;;;;20.26;69.01;102391.84;5054306;28;779;-62
2021/08/31 10:42:06;;;;;;;;;;;;;;;20.33;68.89;102399.38;5054844;28;828;-61
2021/08/31 10:44:31;;;;;;;;;;;;;;;20.41;70.07;102399.66;5071234;28;1951;-61
2021/08/31 10:46:56;;;;;;;;;;;;;;;20.46;69.37;102399.25;5074509;28;791;-61
2021/08/31 10:49:21;;;;;;;;;;;;;;;20.49;70.12;102399.00;5074600;28;1119;-60
2021/08/31 10:51:47;;;;;;;;;;;;;;;20.53;70.07;102396.91;5074601;28;1004;-62
2021/08/31 10:54:12;;;;;;;;;;;;;;;20.50;69.58;102403.44;5074450;28;803;-61
2021/08/31 10:56:37;;;;;;;;;;;;;;;20.45;69.73;102408.34;5074561;28;1032;-61
2021/08/31 10:59:02;;;;;;;;;;;;;;;20.40;68.98;102416.03;5074524;28;921;-61
2021/08/31 11:01:27;;;;;;;;;;;;;;;20.37;68.62;102408.13;5056579;28;1301;-60
2021/08/31 11:03:52;;;;;;;;;;;;;;;20.34;69.33;102411.06;5050075;28;1513;-61
2021/08/31 11:06:18;;;;;;;;;;;;;;;20.30;69.08;102405.03;5054891;28;1948;-61
2021/08/31 11:08:43;;;;;;;;;;;;;;;20.28;68.70;102416.97;5054839;28;822;-60
2021/08/31 11:11:08;;;;;;;;;;;;;;;20.25;68.81;102418.06;5055161;28;855;-61
2021/08/31 11:13:33;;;;;;;;;;;;;;;20.22;67.71;102410.22;5054385;28;1810;-62
2021/08/31 11:15:58;;;;;;;;;;;;;;;20.21;68.91;102404.94;5054967;28;1691;-61
2021/08/31 11:18:23;;;;;;;;;;;;;;;20.22;67.86;102410.22;5057078;28;1650;-61
2021/08/31 11:20:49;;;;;;;;;;;;;;;20.24;68.44;102412.81;5074332;28;1710;-61
2021/08/31 11:23:15;;;;;;;;;;;;;;;20.23;67.79;102420.06;5056003;28;1159;-61
2021/08/31 11:25:40;;;;;;;;;;;;;;;20.24;68.43;102412.81;5044491;28;1969;-61
2021/08/31 11:28:05;;;;;;;;;;;;;;;20.26;68.07;102425.19;5050254;28;1267;-62
2021/08/31 11:30:30;;;;;;;;;;;;;;;20.28;68.04;102416.97;5034731;28;875;-61
2021/08/31 11:32:55;;;;;;;;;;;;;;;20.28;67.66;102423.25;5034484;28;885;-62
2021/08/31 11:35:20;;;;;;;;;;;;;;;20.27;68.02;102424.22;5053724;28;1776;-60
2021/08/31 11:37:45;;;;;;;;;;;;;;;20.30;67.56;102421.28;5074734;28;969;-61
2021/08/31 11:40:10;;;;;;;;;;;;;;;20.41;67.24;102424.03;5074743;28;973;-61
2021/08/31 11:42:35;;;;;;;;;;;;;;;20.51;67.40;102423.25;5074321;28;981;-60
2021/08/31 11:45:00;;;;;;;;;;;;;;;20.56;66.93;102429.16;5076379;28;1894;-62
2021/08/31 11:47:27;;;;;;;;;;;;;;;20.48;67.23;102428.91;5078265;28;1164;-61
2021/08/31 11:49:52;;;;;;;;;;;;;;;20.42;67.38;102431.13;5078313;28;879;-62
2021/08/31 11:52:19;;;;;;;;;;;;;;;20.39;66.91;102431.41;5075693;28;1844;-61
2021/08/31 11:54:44;;;;;;;;;;;;;;;20.38;66.92;102429.69;5058577;28;835;-61
2021/08/31 11:57:09;;;;;;;;;;;;;;;20.39;66.52;102430.53;5057813;28;832;-61
2021/08/31 11:59:34;;;;;;;;;;;;;;;20.37;67.05;102430.66;5058146;28;807;-61
2021/08/31 12:01:59;;;;;;;;;;;;;;;20.33;66.42;102433.69;5058033;28;1805;-62
2021/08/31 12:04:24;;;;;;;;;;;;;;;20.33;66.69;102428.28;5049879;28;1953;-61
2021/08/31 12:06:49;;;;;;;;;;;;;;;20.37;66.65;102427.09;5040285;28;1240;-61
2021/08/31 12:09:15;;;;;;;;;;;;;;;20.38;65.91;102431.53;5045411;28;1386;-61
2021/08/31 12:11:40;;;;;;;;;;;;;;;20.40;66.35;102427.72;5052973;28;2149;-61
2021/08/31 12:14:05;;;;;;;;;;;;;;;20.40;66.38;102433.13;5057395;28;1540;-61
2021/08/31 12:16:30;;;;;;;;;;;;;;;20.42;66.05;102431.13;5057895;28;906;-61
2021/08/31 12:18:55;;;;;;;;;;;;;;;20.42;65.77;102441.97;5057564;28;996;-61
2021/08/31 12:21:20;;;;;;;;;;;;;;;20.42;66.31;102428.41;5057429;28;863;-61
2021/08/31 12:23:45;;;;;;;;;;;;;;;20.44;65.67;102437.28;5057466;28;839;-61
2021/08/31 12:26:10;;;;;;;;;;;;;;;20.44;65.78;102439.13;5057778;28;1910;-60
2021/08/31 12:28:35;;;;;;;;;;;;;;;20.45;65.84;102441.72;5061686;28;1520;-61
2021/08/31 12:31:00;;;;;;;;;;;;;;;20.44;65.63;102437.28;5077245;28;1762;-62
2021/08/31 12:33:26;;;;;;;;;;;;;;;20.43;65.71;102440.97;5077773;28;874;-61
2021/08/31 12:35:51;;;;;;;;;;;;;;;20.42;65.66;102444.66;5075826;28;863;-61
2021/08/31 12:38:21;;;;;;;;;;;;;;;20.43;65.74;102442.81;5077120;28;817;-60